sensor_id;sensor_type;location;lat;lon;timestamp;P1;durP1;ratioP1;P2;durP2;ratioP2
51618;SDS011;38518;53.164;5.430;2023-04-01T00:00:11;15.02;;;13.43;;
51618;SDS011;38518;53.164;5.430;2023-04-01T00:02:38;14.05;;;12.55;;
51618;SDS011;38518;53.164;5.430;2023-04-01T00:05:03;15.13;;;13.20;;
51618;SDS011;38518;53.164;5.430;2023-04-01T00:07:30;16.83;;;13.80;;
51618;SDS011;38518;53.164;5.430;2023-04-01T00:09:56;17.88;;;14.32;;
51618;SDS011;38518;53.164;5.430;2023-04-01T00:12:22;15.80;;;14.20;;
51618;SDS011;38518;53.164;5.430;2023-04-01T00:14:50;18.25;;;15.48;;
51618;SDS011;38518;53.164;5.430;2023-04-01T00:17:16;17.35;;;15.25;;
51618;SDS011;38518;53.164;5.430;2023-04-01T00:19:41;16.77;;;14.60;;
51618;SDS011;38518;53.164;5.430;2023-04-01T00:22:07;17.70;;;15.20;;
51618;SDS011;38518;53.164;5.430;2023-04-01T00:24:36;17.58;;;15.27;;
51618;SDS011;38518;53.164;5.430;2023-04-01T00:27:03;17.48;;;14.15;;
51618;SDS011;38518;53.164;5.430;2023-04-01T00:29:28;16.23;;;14.30;;
51618;SDS011;38518;53.164;5.430;2023-04-01T00:31:58;16.42;;;13.95;;
51618;SDS011;38518;53.164;5.430;2023-04-01T00:34:24;16.08;;;13.65;;
51618;SDS011;38518;53.164;5.430;2023-04-01T00:36:52;17.05;;;14.10;;
51618;SDS011;38518;53.164;5.430;2023-04-01T00:39:18;14.48;;;12.98;;
51618;SDS011;38518;53.164;5.430;2023-04-01T00:41:44;15.20;;;13.18;;
51618;SDS011;38518;53.164;5.430;2023-04-01T00:44:29;16.30;;;13.85;;
51618;SDS011;38518;53.164;5.430;2023-04-01T00:46:57;16.13;;;13.27;;
51618;SDS011;38518;53.164;5.430;2023-04-01T00:49:25;15.48;;;13.88;;
51618;SDS011;38518;53.164;5.430;2023-04-01T00:51:55;15.20;;;13.60;;
51618;SDS011;38518;53.164;5.430;2023-04-01T00:54:24;15.30;;;13.32;;
51618;SDS011;38518;53.164;5.430;2023-04-01T00:56:53;14.40;;;12.85;;
51618;SDS011;38518;53.164;5.430;2023-04-01T00:59:23;18.27;;;14.48;;
51618;SDS011;38518;53.164;5.430;2023-04-01T01:01:52;17.38;;;14.55;;
51618;SDS011;38518;53.164;5.430;2023-04-01T01:04:22;20.85;;;15.30;;
51618;SDS011;38518;53.164;5.430;2023-04-01T01:12:35;20.35;;;15.40;;
51618;SDS011;38518;53.164;5.430;2023-04-01T01:15:25;19.20;;;15.18;;
51618;SDS011;38518;53.164;5.430;2023-04-01T01:18:09;20.38;;;16.00;;
51618;SDS011;38518;53.164;5.430;2023-04-01T01:31:29;18.40;;;15.00;;
51618;SDS011;38518;53.164;5.430;2023-04-01T01:34:22;19.02;;;15.40;;
51618;SDS011;38518;53.164;5.430;2023-04-01T01:36:52;18.90;;;15.75;;
51618;SDS011;38518;53.164;5.430;2023-04-01T01:39:23;16.80;;;14.98;;
51618;SDS011;38518;53.164;5.430;2023-04-01T01:41:55;18.83;;;15.75;;
51618;SDS011;38518;53.164;5.430;2023-04-01T01:44:24;18.33;;;11.52;;
51618;SDS011;38518;53.164;5.430;2023-04-01T01:46:52;19.23;;;16.35;;
51618;SDS011;38518;53.164;5.430;2023-04-01T01:49:17;18.50;;;16.13;;
51618;SDS011;38518;53.164;5.430;2023-04-01T01:51:45;22.55;;;17.75;;
51618;SDS011;38518;53.164;5.430;2023-04-01T01:54:14;20.20;;;15.85;;
51618;SDS011;38518;53.164;5.430;2023-04-01T01:56:42;20.10;;;16.00;;
51618;SDS011;38518;53.164;5.430;2023-04-01T01:59:12;19.08;;;15.85;;
51618;SDS011;38518;53.164;5.430;2023-04-01T02:01:40;16.98;;;15.18;;
51618;SDS011;38518;53.164;5.430;2023-04-01T02:04:09;17.17;;;14.82;;
51618;SDS011;38518;53.164;5.430;2023-04-01T02:06:38;17.63;;;15.13;;
51618;SDS011;38518;53.164;5.430;2023-04-01T02:09:08;17.88;;;15.13;;
51618;SDS011;38518;53.164;5.430;2023-04-01T02:11:44;20.58;;;16.17;;
51618;SDS011;38518;53.164;5.430;2023-04-01T02:14:15;17.55;;;15.20;;
51618;SDS011;38518;53.164;5.430;2023-04-01T02:16:44;18.05;;;14.70;;
51618;SDS011;38518;53.164;5.430;2023-04-01T02:19:11;18.38;;;15.38;;
51618;SDS011;38518;53.164;5.430;2023-04-01T02:21:38;17.27;;;11.40;;
51618;SDS011;38518;53.164;5.430;2023-04-01T02:24:08;19.05;;;15.23;;
51618;SDS011;38518;53.164;5.430;2023-04-01T02:26:37;19.13;;;15.70;;
51618;SDS011;38518;53.164;5.430;2023-04-01T02:29:04;18.33;;;15.50;;
51618;SDS011;38518;53.164;5.430;2023-04-01T02:31:31;20.00;;;15.88;;
51618;SDS011;38518;53.164;5.430;2023-04-01T02:33:57;20.55;;;16.02;;
51618;SDS011;38518;53.164;5.430;2023-04-01T02:36:23;21.80;;;16.58;;
51618;SDS011;38518;53.164;5.430;2023-04-01T02:38:49;21.17;;;16.63;;
51618;SDS011;38518;53.164;5.430;2023-04-01T02:41:17;19.00;;;15.68;;
51618;SDS011;38518;53.164;5.430;2023-04-01T02:43:43;18.33;;;15.90;;
51618;SDS011;38518;53.164;5.430;2023-04-01T02:46:08;24.60;;;17.77;;
51618;SDS011;38518;53.164;5.430;2023-04-01T02:48:34;20.08;;;16.63;;
51618;SDS011;38518;53.164;5.430;2023-04-01T02:51:00;22.27;;;17.65;;
51618;SDS011;38518;53.164;5.430;2023-04-01T02:53:28;24.75;;;18.48;;
51618;SDS011;38518;53.164;5.430;2023-04-01T02:55:54;24.88;;;18.70;;
51618;SDS011;38518;53.164;5.430;2023-04-01T02:58:20;26.27;;;19.15;;
51618;SDS011;38518;53.164;5.430;2023-04-01T03:00:46;24.73;;;19.45;;
51618;SDS011;38518;53.164;5.430;2023-04-01T03:03:12;25.50;;;19.58;;
51618;SDS011;38518;53.164;5.430;2023-04-01T03:05:38;25.10;;;20.08;;
51618;SDS011;38518;53.164;5.430;2023-04-01T03:08:04;25.38;;;19.70;;
51618;SDS011;38518;53.164;5.430;2023-04-01T03:10:31;28.33;;;20.63;;
51618;SDS011;38518;53.164;5.430;2023-04-01T03:12:57;26.13;;;20.58;;
51618;SDS011;38518;53.164;5.430;2023-04-01T03:15:22;27.63;;;20.98;;
51618;SDS011;38518;53.164;5.430;2023-04-01T03:17:48;31.20;;;21.23;;
51618;SDS011;38518;53.164;5.430;2023-04-01T03:20:14;27.65;;;20.35;;
51618;SDS011;38518;53.164;5.430;2023-04-01T03:22:40;28.73;;;21.17;;
51618;SDS011;38518;53.164;5.430;2023-04-01T03:25:06;28.98;;;21.15;;
51618;SDS011;38518;53.164;5.430;2023-04-01T03:27:33;28.40;;;20.55;;
51618;SDS011;38518;53.164;5.430;2023-04-01T03:30:01;27.02;;;20.50;;
51618;SDS011;38518;53.164;5.430;2023-04-01T03:32:28;28.77;;;21.85;;
51618;SDS011;38518;53.164;5.430;2023-04-01T03:34:53;29.17;;;21.35;;
51618;SDS011;38518;53.164;5.430;2023-04-01T03:37:19;28.13;;;20.55;;
51618;SDS011;38518;53.164;5.430;2023-04-01T03:39:45;27.88;;;21.02;;
51618;SDS011;38518;53.164;5.430;2023-04-01T03:42:11;27.65;;;20.50;;
51618;SDS011;38518;53.164;5.430;2023-04-01T03:44:37;28.65;;;20.60;;
51618;SDS011;38518;53.164;5.430;2023-04-01T03:47:03;28.73;;;20.75;;
51618;SDS011;38518;53.164;5.430;2023-04-01T03:49:28;27.65;;;20.08;;
51618;SDS011;38518;53.164;5.430;2023-04-01T03:51:54;27.10;;;19.90;;
51618;SDS011;38518;53.164;5.430;2023-04-01T03:54:20;26.05;;;19.75;;
51618;SDS011;38518;53.164;5.430;2023-04-01T03:56:46;30.33;;;20.85;;
51618;SDS011;38518;53.164;5.430;2023-04-01T03:59:12;26.20;;;19.75;;
51618;SDS011;38518;53.164;5.430;2023-04-01T04:01:40;24.67;;;19.67;;
51618;SDS011;38518;53.164;5.430;2023-04-01T04:04:06;26.50;;;20.05;;
51618;SDS011;38518;53.164;5.430;2023-04-01T04:06:32;30.77;;;21.38;;
51618;SDS011;38518;53.164;5.430;2023-04-01T04:08:58;26.05;;;19.67;;
51618;SDS011;38518;53.164;5.430;2023-04-01T04:11:23;27.83;;;21.08;;
51618;SDS011;38518;53.164;5.430;2023-04-01T04:13:49;28.58;;;21.70;;
51618;SDS011;38518;53.164;5.430;2023-04-01T04:16:16;29.60;;;21.58;;
51618;SDS011;38518;53.164;5.430;2023-04-01T04:18:42;31.00;;;21.83;;
51618;SDS011;38518;53.164;5.430;2023-04-01T04:21:11;26.10;;;21.02;;
51618;SDS011;38518;53.164;5.430;2023-04-01T04:23:38;31.02;;;22.65;;
51618;SDS011;38518;53.164;5.430;2023-04-01T04:26:06;29.42;;;21.27;;
51618;SDS011;38518;53.164;5.430;2023-04-01T04:28:33;27.90;;;20.17;;
51618;SDS011;38518;53.164;5.430;2023-04-01T04:30:59;26.23;;;19.02;;
51618;SDS011;38518;53.164;5.430;2023-04-01T04:33:25;22.63;;;15.63;;
51618;SDS011;38518;53.164;5.430;2023-04-01T04:35:51;20.70;;;15.18;;
51618;SDS011;38518;53.164;5.430;2023-04-01T04:38:20;22.10;;;15.38;;
51618;SDS011;38518;53.164;5.430;2023-04-01T04:40:46;23.58;;;15.50;;
51618;SDS011;38518;53.164;5.430;2023-04-01T04:43:12;27.92;;;17.83;;
51618;SDS011;38518;53.164;5.430;2023-04-01T04:45:39;34.95;;;19.17;;
51618;SDS011;38518;53.164;5.430;2023-04-01T04:48:07;28.90;;;20.27;;
51618;SDS011;38518;53.164;5.430;2023-04-01T04:50:33;31.38;;;20.13;;
51618;SDS011;38518;53.164;5.430;2023-04-01T04:52:59;40.33;;;23.80;;
51618;SDS011;38518;53.164;5.430;2023-04-01T04:55:25;37.15;;;24.55;;
51618;SDS011;38518;53.164;5.430;2023-04-01T04:57:51;39.08;;;25.15;;
51618;SDS011;38518;53.164;5.430;2023-04-01T05:00:16;45.97;;;26.95;;
51618;SDS011;38518;53.164;5.430;2023-04-01T05:02:42;53.65;;;29.05;;
51618;SDS011;38518;53.164;5.430;2023-04-01T05:05:08;45.78;;;29.42;;
51618;SDS011;38518;53.164;5.430;2023-04-01T05:07:35;53.03;;;30.90;;
51618;SDS011;38518;53.164;5.430;2023-04-01T05:10:01;46.03;;;28.38;;
51618;SDS011;38518;53.164;5.430;2023-04-01T05:12:27;46.15;;;28.02;;
51618;SDS011;38518;53.164;5.430;2023-04-01T05:14:53;41.45;;;27.08;;
51618;SDS011;38518;53.164;5.430;2023-04-01T05:17:18;39.53;;;25.33;;
51618;SDS011;38518;53.164;5.430;2023-04-01T05:19:44;44.00;;;26.42;;
51618;SDS011;38518;53.164;5.430;2023-04-01T05:22:10;41.25;;;26.80;;
51618;SDS011;38518;53.164;5.430;2023-04-01T05:24:36;44.13;;;25.92;;
51618;SDS011;38518;53.164;5.430;2023-04-01T05:27:01;41.38;;;25.95;;
51618;SDS011;38518;53.164;5.430;2023-04-01T05:29:27;45.88;;;25.70;;
51618;SDS011;38518;53.164;5.430;2023-04-01T05:31:53;41.17;;;25.98;;
51618;SDS011;38518;53.164;5.430;2023-04-01T05:34:19;40.30;;;26.25;;
51618;SDS011;38518;53.164;5.430;2023-04-01T05:36:44;44.13;;;28.33;;
51618;SDS011;38518;53.164;5.430;2023-04-01T05:39:10;42.65;;;26.77;;
51618;SDS011;38518;53.164;5.430;2023-04-01T05:41:36;48.70;;;29.60;;
51618;SDS011;38518;53.164;5.430;2023-04-01T05:44:03;53.30;;;31.20;;
51618;SDS011;38518;53.164;5.430;2023-04-01T05:46:30;51.10;;;31.45;;
51618;SDS011;38518;53.164;5.430;2023-04-01T05:48:56;60.13;;;33.45;;
51618;SDS011;38518;53.164;5.430;2023-04-01T05:51:22;64.82;;;33.05;;
51618;SDS011;38518;53.164;5.430;2023-04-01T05:53:48;56.80;;;26.48;;
51618;SDS011;38518;53.164;5.430;2023-04-01T05:56:14;52.05;;;31.65;;
51618;SDS011;38518;53.164;5.430;2023-04-01T05:58:40;50.20;;;24.10;;
51618;SDS011;38518;53.164;5.430;2023-04-01T06:01:07;51.75;;;30.65;;
51618;SDS011;38518;53.164;5.430;2023-04-01T06:03:34;52.47;;;31.00;;
51618;SDS011;38518;53.164;5.430;2023-04-01T06:06:00;50.53;;;30.02;;
51618;SDS011;38518;53.164;5.430;2023-04-01T06:08:27;47.60;;;28.60;;
51618;SDS011;38518;53.164;5.430;2023-04-01T06:16:22;58.75;;;31.23;;
51618;SDS011;38518;53.164;5.430;2023-04-01T06:30:40;73.65;;;33.53;;
51618;SDS011;38518;53.164;5.430;2023-04-01T06:33:18;69.53;;;33.50;;
51618;SDS011;38518;53.164;5.430;2023-04-01T06:44:47;60.15;;;30.08;;
51618;SDS011;38518;53.164;5.430;2023-04-01T06:50:19;58.67;;;30.15;;
51618;SDS011;38518;53.164;5.430;2023-04-01T06:55:57;65.05;;;30.88;;
51618;SDS011;38518;53.164;5.430;2023-04-01T07:01:37;56.10;;;28.35;;
51618;SDS011;38518;53.164;5.430;2023-04-01T07:09:55;43.90;;;24.48;;
51618;SDS011;38518;53.164;5.430;2023-04-01T07:15:04;50.00;;;26.67;;
51618;SDS011;38518;53.164;5.430;2023-04-01T07:17:44;50.70;;;28.25;;
51618;SDS011;38518;53.164;5.430;2023-04-01T07:20:19;48.00;;;27.42;;
51618;SDS011;38518;53.164;5.430;2023-04-01T07:22:52;51.35;;;27.40;;
51618;SDS011;38518;53.164;5.430;2023-04-01T07:25:31;46.05;;;25.42;;
51618;SDS011;38518;53.164;5.430;2023-04-01T07:28:06;47.42;;;26.95;;
51618;SDS011;38518;53.164;5.430;2023-04-01T07:31:22;39.00;;;22.27;;
51618;SDS011;38518;53.164;5.430;2023-04-01T07:38:56;62.25;;;29.30;;
51618;SDS011;38518;53.164;5.430;2023-04-01T07:41:27;65.35;;;30.95;;
51618;SDS011;38518;53.164;5.430;2023-04-01T07:55:54;54.75;;;29.05;;
51618;SDS011;38518;53.164;5.430;2023-04-01T08:04:27;51.95;;;25.15;;
51618;SDS011;38518;53.164;5.430;2023-04-01T08:10:19;40.00;;;22.97;;
51618;SDS011;38518;53.164;5.430;2023-04-01T08:15:39;38.85;;;21.20;;
51618;SDS011;38518;53.164;5.430;2023-04-01T08:23:54;34.35;;;21.23;;
51618;SDS011;38518;53.164;5.430;2023-04-01T08:29:04;37.90;;;22.48;;
51618;SDS011;38518;53.164;5.430;2023-04-01T08:31:54;41.60;;;21.73;;
51618;SDS011;38518;53.164;5.430;2023-04-01T08:34:25;41.10;;;22.42;;
51618;SDS011;38518;53.164;5.430;2023-04-01T08:37:00;31.02;;;20.15;;
51618;SDS011;38518;53.164;5.430;2023-04-01T08:39:48;32.17;;;19.65;;
51618;SDS011;38518;53.164;5.430;2023-04-01T08:42:37;29.85;;;19.35;;
51618;SDS011;38518;53.164;5.430;2023-04-01T08:48:17;21.52;;;15.55;;
51618;SDS011;38518;53.164;5.430;2023-04-01T08:51:02;20.77;;;12.55;;
51618;SDS011;38518;53.164;5.430;2023-04-01T09:05:20;12.50;;;6.13;;
51618;SDS011;38518;53.164;5.430;2023-04-01T09:08:05;13.65;;;5.63;;
51618;SDS011;38518;53.164;5.430;2023-04-01T09:11:17;13.95;;;5.68;;
51618;SDS011;38518;53.164;5.430;2023-04-01T09:19:35;8.23;;;4.35;;
51618;SDS011;38518;53.164;5.430;2023-04-01T09:25:01;9.93;;;3.72;;
51618;SDS011;38518;53.164;5.430;2023-04-01T09:33:39;7.72;;;3.90;;
51618;SDS011;38518;53.164;5.430;2023-04-01T09:36:33;6.05;;;3.72;;
51618;SDS011;38518;53.164;5.430;2023-04-01T09:42:02;11.10;;;4.00;;
51618;SDS011;38518;53.164;5.430;2023-04-01T09:44:36;11.27;;;4.82;;
51618;SDS011;38518;53.164;5.430;2023-04-01T09:52:43;8.60;;;4.07;;
51618;SDS011;38518;53.164;5.430;2023-04-01T10:06:26;6.35;;;4.28;;
51618;SDS011;38518;53.164;5.430;2023-04-01T10:20:12;4.50;;;3.15;;
51618;SDS011;38518;53.164;5.430;2023-04-01T10:26:12;11.82;;;4.47;;
51618;SDS011;38518;53.164;5.430;2023-04-01T10:37:23;9.50;;;3.75;;
51618;SDS011;38518;53.164;5.430;2023-04-01T10:45:30;8.80;;;3.60;;
51618;SDS011;38518;53.164;5.430;2023-04-01T10:48:23;7.65;;;3.35;;
51618;SDS011;38518;53.164;5.430;2023-04-01T10:56:55;9.02;;;3.53;;
51618;SDS011;38518;53.164;5.430;2023-04-01T11:02:12;9.23;;;4.60;;
51618;SDS011;38518;53.164;5.430;2023-04-01T11:30:13;5.45;;;2.47;;
51618;SDS011;38518;53.164;5.430;2023-04-01T11:32:53;5.88;;;2.30;;
51618;SDS011;38518;53.164;5.430;2023-04-01T11:35:35;8.80;;;2.80;;
51618;SDS011;38518;53.164;5.430;2023-04-01T11:55:06;5.18;;;2.28;;
51618;SDS011;38518;53.164;5.430;2023-04-01T11:58:08;5.63;;;2.20;;
51618;SDS011;38518;53.164;5.430;2023-04-01T12:00:41;5.70;;;2.20;;
51618;SDS011;38518;53.164;5.430;2023-04-01T12:11:48;5.55;;;2.10;;
51618;SDS011;38518;53.164;5.430;2023-04-01T12:14:36;5.25;;;2.28;;
51618;SDS011;38518;53.164;5.430;2023-04-01T12:20:26;4.00;;;2.40;;
51618;SDS011;38518;53.164;5.430;2023-04-01T12:23:21;5.38;;;2.60;;
51618;SDS011;38518;53.164;5.430;2023-04-01T12:31:56;5.55;;;2.55;;
51618;SDS011;38518;53.164;5.430;2023-04-01T12:37:34;6.15;;;2.70;;
51618;SDS011;38518;53.164;5.430;2023-04-01T12:45:14;5.20;;;2.55;;
51618;SDS011;38518;53.164;5.430;2023-04-01T12:55:45;6.35;;;2.50;;
51618;SDS011;38518;53.164;5.430;2023-04-01T13:01:28;3.85;;;2.30;;
51618;SDS011;38518;53.164;5.430;2023-04-01T13:09:53;4.57;;;2.58;;
51618;SDS011;38518;53.164;5.430;2023-04-01T13:12:42;4.63;;;2.40;;
51618;SDS011;38518;53.164;5.430;2023-04-01T13:15:37;4.50;;;2.30;;
51618;SDS011;38518;53.164;5.430;2023-04-01T13:18:17;4.05;;;2.25;;
51618;SDS011;38518;53.164;5.430;2023-04-01T13:21:05;6.85;;;2.67;;
51618;SDS011;38518;53.164;5.430;2023-04-01T13:26:18;4.40;;;2.40;;
51618;SDS011;38518;53.164;5.430;2023-04-01T13:28:55;6.82;;;2.60;;
51618;SDS011;38518;53.164;5.430;2023-04-01T13:39:14;5.30;;;2.35;;
51618;SDS011;38518;53.164;5.430;2023-04-01T13:44:38;3.55;;;2.60;;
51618;SDS011;38518;53.164;5.430;2023-04-01T13:50:34;3.70;;;2.38;;
51618;SDS011;38518;53.164;5.430;2023-04-01T13:53:15;4.82;;;2.53;;
51618;SDS011;38518;53.164;5.430;2023-04-01T13:58:58;4.65;;;2.65;;
51618;SDS011;38518;53.164;5.430;2023-04-01T14:48:03;11.52;;;3.45;;
51618;SDS011;38518;53.164;5.430;2023-04-01T14:50:41;9.68;;;3.78;;
51618;SDS011;38518;53.164;5.430;2023-04-01T14:55:49;15.88;;;4.35;;
51618;SDS011;38518;53.164;5.430;2023-04-01T14:58:17;15.60;;;4.30;;
51618;SDS011;38518;53.164;5.430;2023-04-01T15:06:59;18.38;;;5.20;;
51618;SDS011;38518;53.164;5.430;2023-04-01T15:09:29;14.23;;;5.28;;
51618;SDS011;38518;53.164;5.430;2023-04-01T15:15:02;16.33;;;5.38;;
51618;SDS011;38518;53.164;5.430;2023-04-01T15:20:32;13.43;;;5.07;;
51618;SDS011;38518;53.164;5.430;2023-04-01T15:23:07;14.32;;;5.47;;
51618;SDS011;38518;53.164;5.430;2023-04-01T15:26:17;13.60;;;4.32;;
51618;SDS011;38518;53.164;5.430;2023-04-01T15:32:04;13.73;;;5.40;;
51618;SDS011;38518;53.164;5.430;2023-04-01T15:45:18;12.55;;;5.70;;
51618;SDS011;38518;53.164;5.430;2023-04-01T15:48:23;19.55;;;7.93;;
51618;SDS011;38518;53.164;5.430;2023-04-01T16:15:39;14.85;;;6.35;;
51618;SDS011;38518;53.164;5.430;2023-04-01T16:21:01;15.15;;;6.82;;
51618;SDS011;38518;53.164;5.430;2023-04-01T16:23:51;19.98;;;6.97;;
51618;SDS011;38518;53.164;5.430;2023-04-01T16:28:57;17.25;;;7.57;;
51618;SDS011;38518;53.164;5.430;2023-04-01T16:31:43;17.63;;;6.95;;
51618;SDS011;38518;53.164;5.430;2023-04-01T16:37:39;15.07;;;6.90;;
51618;SDS011;38518;53.164;5.430;2023-04-01T16:39:54;12.95;;;5.80;;
51618;SDS011;38518;53.164;5.430;2023-04-01T16:42:51;15.90;;;6.55;;
51618;SDS011;38518;53.164;5.430;2023-04-01T16:47:54;13.00;;;5.60;;
51618;SDS011;38518;53.164;5.430;2023-04-01T16:50:44;19.30;;;7.28;;
51618;SDS011;38518;53.164;5.430;2023-04-01T16:56:13;18.48;;;7.90;;
51618;SDS011;38518;53.164;5.430;2023-04-01T17:01:43;17.10;;;7.03;;
51618;SDS011;38518;53.164;5.430;2023-04-01T17:04:14;17.00;;;7.70;;
51618;SDS011;38518;53.164;5.430;2023-04-01T17:06:54;16.70;;;8.65;;
51618;SDS011;38518;53.164;5.430;2023-04-01T17:09:43;19.15;;;8.43;;
51618;SDS011;38518;53.164;5.430;2023-04-01T17:18:04;18.52;;;7.95;;
51618;SDS011;38518;53.164;5.430;2023-04-01T17:28:50;14.40;;;6.97;;
51618;SDS011;38518;53.164;5.430;2023-04-01T17:42:40;15.43;;;7.38;;
51618;SDS011;38518;53.164;5.430;2023-04-01T17:48:01;15.52;;;8.35;;
51618;SDS011;38518;53.164;5.430;2023-04-01T17:53:24;10.68;;;7.25;;
51618;SDS011;38518;53.164;5.430;2023-04-01T17:58:58;12.30;;;6.13;;
51618;SDS011;38518;53.164;5.430;2023-04-01T18:04:15;11.02;;;7.00;;
51618;SDS011;38518;53.164;5.430;2023-04-01T18:06:59;11.60;;;6.90;;
51618;SDS011;38518;53.164;5.430;2023-04-01T18:20:43;14.38;;;7.15;;
51618;SDS011;38518;53.164;5.430;2023-04-01T18:23:24;14.40;;;7.25;;
51618;SDS011;38518;53.164;5.430;2023-04-01T18:26:06;13.02;;;6.03;;
51618;SDS011;38518;53.164;5.430;2023-04-01T18:28:43;14.10;;;7.00;;
51618;SDS011;38518;53.164;5.430;2023-04-01T18:31:23;9.32;;;5.40;;
51618;SDS011;38518;53.164;5.430;2023-04-01T18:36:37;13.77;;;7.28;;
51618;SDS011;38518;53.164;5.430;2023-04-01T18:39:12;12.55;;;6.20;;
51618;SDS011;38518;53.164;5.430;2023-04-01T18:44:34;14.52;;;7.85;;
51618;SDS011;38518;53.164;5.430;2023-04-01T18:52:51;11.40;;;7.60;;
51618;SDS011;38518;53.164;5.430;2023-04-01T18:55:56;13.30;;;6.65;;
51618;SDS011;38518;53.164;5.430;2023-04-01T18:58:32;15.10;;;7.90;;
51618;SDS011;38518;53.164;5.430;2023-04-01T19:01:28;16.48;;;7.32;;
51618;SDS011;38518;53.164;5.430;2023-04-01T19:04:15;15.15;;;7.32;;
51618;SDS011;38518;53.164;5.430;2023-04-01T19:07:00;14.82;;;7.20;;
51618;SDS011;38518;53.164;5.430;2023-04-01T19:09:44;15.32;;;6.68;;
51618;SDS011;38518;53.164;5.430;2023-04-01T19:12:15;11.95;;;6.95;;
51618;SDS011;38518;53.164;5.430;2023-04-01T19:15:09;12.65;;;6.95;;
51618;SDS011;38518;53.164;5.430;2023-04-01T19:17:58;11.23;;;6.70;;
51618;SDS011;38518;53.164;5.430;2023-04-01T19:29:30;11.95;;;6.30;;
51618;SDS011;38518;53.164;5.430;2023-04-01T19:32:23;10.95;;;5.82;;
51618;SDS011;38518;53.164;5.430;2023-04-01T19:38:53;11.90;;;7.05;;
51618;SDS011;38518;53.164;5.430;2023-04-01T19:46:45;13.63;;;7.57;;
51618;SDS011;38518;53.164;5.430;2023-04-01T19:49:29;19.70;;;8.40;;
51618;SDS011;38518;53.164;5.430;2023-04-01T20:00:37;14.75;;;7.90;;
51618;SDS011;38518;53.164;5.430;2023-04-01T20:03:41;18.05;;;8.00;;
51618;SDS011;38518;53.164;5.430;2023-04-01T20:06:17;14.65;;;7.53;;
51618;SDS011;38518;53.164;5.430;2023-04-01T20:19:19;16.50;;;7.40;;
51618;SDS011;38518;53.164;5.430;2023-04-01T20:22:18;17.45;;;7.72;;
51618;SDS011;38518;53.164;5.430;2023-04-01T20:24:53;16.83;;;7.70;;
51618;SDS011;38518;53.164;5.430;2023-04-01T20:27:33;13.38;;;6.80;;
51618;SDS011;38518;53.164;5.430;2023-04-01T20:41:17;10.10;;;5.45;;
51618;SDS011;38518;53.164;5.430;2023-04-01T20:44:04;14.48;;;6.50;;
51618;SDS011;38518;53.164;5.430;2023-04-01T20:46:48;14.35;;;6.63;;
51618;SDS011;38518;53.164;5.430;2023-04-01T21:02:46;16.67;;;6.35;;
51618;SDS011;38518;53.164;5.430;2023-04-01T21:11:18;9.95;;;5.47;;
51618;SDS011;38518;53.164;5.430;2023-04-01T21:33:42;12.25;;;3.95;;
51618;SDS011;38518;53.164;5.430;2023-04-01T21:39:05;14.50;;;5.00;;
51618;SDS011;38518;53.164;5.430;2023-04-01T21:44:35;14.77;;;5.30;;
51618;SDS011;38518;53.164;5.430;2023-04-01T21:55:35;15.48;;;5.22;;
51618;SDS011;38518;53.164;5.430;2023-04-01T22:01:23;14.32;;;4.60;;
51618;SDS011;38518;53.164;5.430;2023-04-01T22:09:39;13.63;;;5.00;;
51618;SDS011;38518;53.164;5.430;2023-04-01T22:12:17;11.43;;;5.15;;
51618;SDS011;38518;53.164;5.430;2023-04-01T22:14:55;16.02;;;5.38;;
51618;SDS011;38518;53.164;5.430;2023-04-01T22:20:32;14.77;;;4.95;;
51618;SDS011;38518;53.164;5.430;2023-04-01T22:23:08;9.70;;;4.22;;
51618;SDS011;38518;53.164;5.430;2023-04-01T22:25:46;11.48;;;4.85;;
51618;SDS011;38518;53.164;5.430;2023-04-01T22:31:12;15.55;;;4.72;;
51618;SDS011;38518;53.164;5.430;2023-04-01T22:43:47;11.70;;;4.78;;
51618;SDS011;38518;53.164;5.430;2023-04-01T22:54:20;11.65;;;4.28;;
51618;SDS011;38518;53.164;5.430;2023-04-01T22:57:00;14.98;;;4.85;;
51618;SDS011;38518;53.164;5.430;2023-04-01T22:59:31;11.27;;;3.67;;
51618;SDS011;38518;53.164;5.430;2023-04-01T23:02:26;12.07;;;4.93;;
51618;SDS011;38518;53.164;5.430;2023-04-01T23:04:56;11.68;;;4.20;;
51618;SDS011;38518;53.164;5.430;2023-04-01T23:07:38;8.13;;;4.10;;
51618;SDS011;38518;53.164;5.430;2023-04-01T23:12:56;11.32;;;4.07;;
51618;SDS011;38518;53.164;5.430;2023-04-01T23:15:25;8.68;;;3.65;;
51618;SDS011;38518;53.164;5.430;2023-04-01T23:20:44;11.00;;;3.38;;
51618;SDS011;38518;53.164;5.430;2023-04-01T23:29:13;11.07;;;4.43;;
51618;SDS011;38518;53.164;5.430;2023-04-01T23:31:41;11.45;;;3.65;;
51618;SDS011;38518;53.164;5.430;2023-04-01T23:37:04;10.57;;;4.72;;
51618;SDS011;38518;53.164;5.430;2023-04-01T23:39:38;10.98;;;4.85;;
51618;SDS011;38518;53.164;5.430;2023-04-01T23:44:47;10.88;;;4.60;;
51618;SDS011;38518;53.164;5.430;2023-04-01T23:47:16;13.40;;;4.53;;
51618;SDS011;38518;53.164;5.430;2023-04-01T23:49:46;10.75;;;4.55;;
51618;SDS011;38518;53.164;5.430;2023-04-01T23:57:24;7.97;;;3.13;;
